Terminal Aerodrome Forecast
Issued by NWS

Home | Current Version | Previous Version | Text Only | Print | Product List | Glossary On
Versions: 1 2 3 4 5 6 7 8 9 10 11 12 13 14 15
000
FTUS42 KGSP 201607 AAB
TAFAND
TAF AMD
KAND 201607Z 2016/2112 04005KT 3SM -DZ BR BKN008 OVC011
     FM201700 08005KT 5SM BR OVC020
     FM201900 04004KT P6SM OVC025
     FM210300 04003KT 5SM BR BKN019
     FM210900 05003KT 1/2SM FG BKN015=

USA.gov is the U.S. government's official web portal to all federal, state and local government web resources and services.